sensor_id;sensor_type;location;lat;lon;timestamp;P1;durP1;ratioP1;P2;durP2;ratioP2
14187;SDS011;7175;51.978;5.330;2022-11-15T00:01:11;68.93;;;64.23;;
14187;SDS011;7175;51.978;5.330;2022-11-15T00:03:43;70.70;;;65.97;;
14187;SDS011;7175;51.978;5.330;2022-11-15T00:06:12;70.57;;;65.80;;
14187;SDS011;7175;51.978;5.330;2022-11-15T00:08:41;69.03;;;64.33;;
14187;SDS011;7175;51.978;5.330;2022-11-15T00:11:10;69.30;;;64.50;;
14187;SDS011;7175;51.978;5.330;2022-11-15T00:13:39;72.67;;;67.67;;
14187;SDS011;7175;51.978;5.330;2022-11-15T00:16:08;74.60;;;69.50;;
14187;SDS011;7175;51.978;5.330;2022-11-15T00:18:37;79.00;;;73.70;;
14187;SDS011;7175;51.978;5.330;2022-11-15T00:21:06;77.20;;;71.83;;
14187;SDS011;7175;51.978;5.330;2022-11-15T00:23:37;76.40;;;71.20;;
14187;SDS011;7175;51.978;5.330;2022-11-15T00:26:06;78.40;;;73.13;;
14187;SDS011;7175;51.978;5.330;2022-11-15T00:28:38;77.80;;;72.47;;
14187;SDS011;7175;51.978;5.330;2022-11-15T00:31:09;77.67;;;72.47;;
14187;SDS011;7175;51.978;5.330;2022-11-15T00:33:39;80.83;;;75.43;;
14187;SDS011;7175;51.978;5.330;2022-11-15T00:36:09;77.10;;;72.00;;
14187;SDS011;7175;51.978;5.330;2022-11-15T00:38:38;80.97;;;75.13;;
14187;SDS011;7175;51.978;5.330;2022-11-15T00:41:08;79.70;;;74.30;;
14187;SDS011;7175;51.978;5.330;2022-11-15T00:43:36;80.33;;;75.03;;
14187;SDS011;7175;51.978;5.330;2022-11-15T00:46:06;83.77;;;78.27;;
14187;SDS011;7175;51.978;5.330;2022-11-15T00:48:36;85.20;;;79.60;;
14187;SDS011;7175;51.978;5.330;2022-11-15T00:51:04;86.63;;;81.00;;
14187;SDS011;7175;51.978;5.330;2022-11-15T00:53:32;79.63;;;74.33;;
14187;SDS011;7175;51.978;5.330;2022-11-15T00:56:01;75.73;;;70.50;;
14187;SDS011;7175;51.978;5.330;2022-11-15T00:58:30;82.50;;;77.00;;
14187;SDS011;7175;51.978;5.330;2022-11-15T01:01:05;82.63;;;76.10;;
14187;SDS011;7175;51.978;5.330;2022-11-15T01:03:34;81.17;;;75.80;;
14187;SDS011;7175;51.978;5.330;2022-11-15T01:06:03;80.87;;;75.40;;
14187;SDS011;7175;51.978;5.330;2022-11-15T01:08:31;81.60;;;76.20;;
14187;SDS011;7175;51.978;5.330;2022-11-15T01:11:00;83.77;;;78.17;;
14187;SDS011;7175;51.978;5.330;2022-11-15T01:13:31;82.27;;;76.67;;
14187;SDS011;7175;51.978;5.330;2022-11-15T01:16:05;84.47;;;78.87;;
14187;SDS011;7175;51.978;5.330;2022-11-15T01:18:34;87.77;;;81.87;;
14187;SDS011;7175;51.978;5.330;2022-11-15T01:21:06;87.60;;;81.80;;
14187;SDS011;7175;51.978;5.330;2022-11-15T01:23:35;87.60;;;81.80;;
14187;SDS011;7175;51.978;5.330;2022-11-15T01:26:04;88.83;;;82.43;;
14187;SDS011;7175;51.978;5.330;2022-11-15T01:28:36;83.33;;;77.73;;
14187;SDS011;7175;51.978;5.330;2022-11-15T01:31:06;86.63;;;80.73;;
14187;SDS011;7175;51.978;5.330;2022-11-15T01:33:38;90.03;;;84.03;;
14187;SDS011;7175;51.978;5.330;2022-11-15T01:36:07;90.17;;;84.17;;
14187;SDS011;7175;51.978;5.330;2022-11-15T01:38:38;87.30;;;81.40;;
14187;SDS011;7175;51.978;5.330;2022-11-15T01:41:11;88.90;;;81.80;;
14187;SDS011;7175;51.978;5.330;2022-11-15T01:43:43;87.43;;;81.43;;
14187;SDS011;7175;51.978;5.330;2022-11-15T01:46:26;91.83;;;85.63;;
14187;SDS011;7175;51.978;5.330;2022-11-15T01:49:00;90.43;;;84.23;;
14187;SDS011;7175;51.978;5.330;2022-11-15T01:51:31;95.80;;;89.50;;
14187;SDS011;7175;51.978;5.330;2022-11-15T01:54:01;91.60;;;85.50;;
14187;SDS011;7175;51.978;5.330;2022-11-15T01:56:36;91.17;;;85.07;;
14187;SDS011;7175;51.978;5.330;2022-11-15T01:59:08;88.03;;;82.03;;
14187;SDS011;7175;51.978;5.330;2022-11-15T02:01:38;91.97;;;85.83;;
14187;SDS011;7175;51.978;5.330;2022-11-15T02:04:06;89.67;;;83.70;;
14187;SDS011;7175;51.978;5.330;2022-11-15T02:06:40;87.73;;;81.73;;
14187;SDS011;7175;51.978;5.330;2022-11-15T02:09:10;89.23;;;83.13;;
14187;SDS011;7175;51.978;5.330;2022-11-15T02:11:39;85.80;;;79.87;;
14187;SDS011;7175;51.978;5.330;2022-11-15T02:14:09;91.33;;;84.67;;
14187;SDS011;7175;51.978;5.330;2022-11-15T02:16:42;90.53;;;84.33;;
14187;SDS011;7175;51.978;5.330;2022-11-15T02:19:20;93.83;;;87.20;;
14187;SDS011;7175;51.978;5.330;2022-11-15T02:22:10;90.50;;;84.30;;
14187;SDS011;7175;51.978;5.330;2022-11-15T02:24:57;90.03;;;83.90;;
14187;SDS011;7175;51.978;5.330;2022-11-15T02:30:39;88.97;;;82.87;;
14187;SDS011;7175;51.978;5.330;2022-11-15T02:33:13;89.43;;;83.23;;
14187;SDS011;7175;51.978;5.330;2022-11-15T02:35:52;93.47;;;87.17;;
14187;SDS011;7175;51.978;5.330;2022-11-15T02:38:28;92.17;;;85.97;;
14187;SDS011;7175;51.978;5.330;2022-11-15T02:41:02;91.07;;;84.87;;
14187;SDS011;7175;51.978;5.330;2022-11-15T02:43:36;92.63;;;86.40;;
14187;SDS011;7175;51.978;5.330;2022-11-15T02:46:27;93.73;;;87.40;;
14187;SDS011;7175;51.978;5.330;2022-11-15T02:49:17;89.37;;;83.27;;
14187;SDS011;7175;51.978;5.330;2022-11-15T02:51:46;89.83;;;83.60;;
14187;SDS011;7175;51.978;5.330;2022-11-15T02:54:17;91.27;;;85.07;;
14187;SDS011;7175;51.978;5.330;2022-11-15T02:56:49;90.93;;;84.43;;
14187;SDS011;7175;51.978;5.330;2022-11-15T02:59:34;95.90;;;89.40;;
14187;SDS011;7175;51.978;5.330;2022-11-15T03:02:18;97.97;;;91.43;;
14187;SDS011;7175;51.978;5.330;2022-11-15T03:04:56;95.63;;;89.23;;
14187;SDS011;7175;51.978;5.330;2022-11-15T03:07:28;96.57;;;89.97;;
14187;SDS011;7175;51.978;5.330;2022-11-15T03:10:02;95.67;;;89.27;;
14187;SDS011;7175;51.978;5.330;2022-11-15T03:12:36;90.67;;;84.37;;
14187;SDS011;7175;51.978;5.330;2022-11-15T03:15:11;94.17;;;87.77;;
14187;SDS011;7175;51.978;5.330;2022-11-15T03:17:47;93.57;;;87.27;;
14187;SDS011;7175;51.978;5.330;2022-11-15T03:20:19;96.10;;;89.60;;
14187;SDS011;7175;51.978;5.330;2022-11-15T03:22:48;97.23;;;90.63;;
14187;SDS011;7175;51.978;5.330;2022-11-15T03:25:19;94.40;;;88.00;;
14187;SDS011;7175;51.978;5.330;2022-11-15T03:27:51;90.83;;;84.57;;
14187;SDS011;7175;51.978;5.330;2022-11-15T03:30:22;93.80;;;87.40;;
14187;SDS011;7175;51.978;5.330;2022-11-15T03:32:53;94.60;;;88.20;;
14187;SDS011;7175;51.978;5.330;2022-11-15T03:35:24;96.40;;;89.90;;
14187;SDS011;7175;51.978;5.330;2022-11-15T03:37:56;93.83;;;87.33;;
14187;SDS011;7175;51.978;5.330;2022-11-15T03:40:30;92.97;;;86.70;;
14187;SDS011;7175;51.978;5.330;2022-11-15T03:43:04;92.03;;;85.83;;
14187;SDS011;7175;51.978;5.330;2022-11-15T03:45:39;87.70;;;81.60;;
14187;SDS011;7175;51.978;5.330;2022-11-15T03:48:13;87.57;;;81.57;;
14187;SDS011;7175;51.978;5.330;2022-11-15T03:50:46;91.73;;;85.53;;
14187;SDS011;7175;51.978;5.330;2022-11-15T03:53:14;92.27;;;86.00;;
14187;SDS011;7175;51.978;5.330;2022-11-15T03:55:43;92.37;;;85.67;;
14187;SDS011;7175;51.978;5.330;2022-11-15T03:58:12;88.97;;;82.87;;
14187;SDS011;7175;51.978;5.330;2022-11-15T04:00:40;86.67;;;80.57;;
14187;SDS011;7175;51.978;5.330;2022-11-15T04:03:08;95.23;;;88.77;;
14187;SDS011;7175;51.978;5.330;2022-11-15T04:05:37;93.73;;;87.13;;
14187;SDS011;7175;51.978;5.330;2022-11-15T04:08:05;91.70;;;85.43;;
14187;SDS011;7175;51.978;5.330;2022-11-15T04:10:33;90.73;;;84.43;;
14187;SDS011;7175;51.978;5.330;2022-11-15T04:13:02;92.93;;;86.57;;
14187;SDS011;7175;51.978;5.330;2022-11-15T04:15:30;87.03;;;80.93;;
14187;SDS011;7175;51.978;5.330;2022-11-15T04:17:58;87.67;;;81.47;;
14187;SDS011;7175;51.978;5.330;2022-11-15T04:20:27;91.37;;;85.07;;
14187;SDS011;7175;51.978;5.330;2022-11-15T04:23:16;89.37;;;82.83;;
14187;SDS011;7175;51.978;5.330;2022-11-15T04:26:04;89.20;;;82.90;;
14187;SDS011;7175;51.978;5.330;2022-11-15T04:28:33;91.20;;;84.70;;
14187;SDS011;7175;51.978;5.330;2022-11-15T04:31:01;94.63;;;88.07;;
14187;SDS011;7175;51.978;5.330;2022-11-15T04:33:29;89.60;;;83.30;;
14187;SDS011;7175;51.978;5.330;2022-11-15T04:35:58;92.27;;;85.90;;
14187;SDS011;7175;51.978;5.330;2022-11-15T04:38:45;90.07;;;83.73;;
14187;SDS011;7175;51.978;5.330;2022-11-15T04:41:13;89.17;;;82.97;;
14187;SDS011;7175;51.978;5.330;2022-11-15T04:43:41;91.40;;;85.13;;
14187;SDS011;7175;51.978;5.330;2022-11-15T04:46:09;89.03;;;82.73;;
14187;SDS011;7175;51.978;5.330;2022-11-15T04:48:37;87.10;;;81.07;;
14187;SDS011;7175;51.978;5.330;2022-11-15T04:51:05;90.80;;;84.60;;
14187;SDS011;7175;51.978;5.330;2022-11-15T04:53:33;89.07;;;82.97;;
14187;SDS011;7175;51.978;5.330;2022-11-15T04:56:03;87.13;;;81.03;;
14187;SDS011;7175;51.978;5.330;2022-11-15T04:58:31;82.57;;;76.60;;
14187;SDS011;7175;51.978;5.330;2022-11-15T05:01:05;87.00;;;80.90;;
14187;SDS011;7175;51.978;5.330;2022-11-15T05:03:34;82.73;;;76.83;;
14187;SDS011;7175;51.978;5.330;2022-11-15T05:06:20;84.23;;;78.23;;
14187;SDS011;7175;51.978;5.330;2022-11-15T05:08:48;82.67;;;76.77;;
14187;SDS011;7175;51.978;5.330;2022-11-15T05:11:18;83.50;;;77.50;;
14187;SDS011;7175;51.978;5.330;2022-11-15T05:13:46;79.43;;;73.63;;
14187;SDS011;7175;51.978;5.330;2022-11-15T05:16:14;78.10;;;72.40;;
14187;SDS011;7175;51.978;5.330;2022-11-15T05:18:43;80.33;;;74.53;;
14187;SDS011;7175;51.978;5.330;2022-11-15T05:21:11;83.47;;;76.90;;
14187;SDS011;7175;51.978;5.330;2022-11-15T05:23:41;85.53;;;79.47;;
14187;SDS011;7175;51.978;5.330;2022-11-15T05:26:09;80.17;;;74.37;;
14187;SDS011;7175;51.978;5.330;2022-11-15T05:28:39;80.87;;;74.97;;
14187;SDS011;7175;51.978;5.330;2022-11-15T05:31:07;77.70;;;72.00;;
14187;SDS011;7175;51.978;5.330;2022-11-15T05:33:37;80.67;;;74.87;;
14187;SDS011;7175;51.978;5.330;2022-11-15T05:36:07;80.23;;;74.37;;
14187;SDS011;7175;51.978;5.330;2022-11-15T05:38:41;77.13;;;71.13;;
14187;SDS011;7175;51.978;5.330;2022-11-15T05:41:09;78.50;;;72.60;;
14187;SDS011;7175;51.978;5.330;2022-11-15T05:43:41;79.97;;;73.97;;
14187;SDS011;7175;51.978;5.330;2022-11-15T05:46:10;84.67;;;78.37;;
14187;SDS011;7175;51.978;5.330;2022-11-15T05:48:42;84.93;;;78.73;;
14187;SDS011;7175;51.978;5.330;2022-11-15T05:51:12;76.23;;;70.43;;
14187;SDS011;7175;51.978;5.330;2022-11-15T05:53:42;78.47;;;72.47;;
14187;SDS011;7175;51.978;5.330;2022-11-15T05:56:11;80.47;;;74.47;;
14187;SDS011;7175;51.978;5.330;2022-11-15T05:58:39;78.87;;;73.00;;
14187;SDS011;7175;51.978;5.330;2022-11-15T06:01:09;76.57;;;70.77;;
14187;SDS011;7175;51.978;5.330;2022-11-15T06:03:38;80.67;;;74.77;;
14187;SDS011;7175;51.978;5.330;2022-11-15T06:06:06;80.17;;;74.17;;
14187;SDS011;7175;51.978;5.330;2022-11-15T06:08:41;79.40;;;73.40;;
14187;SDS011;7175;51.978;5.330;2022-11-15T06:11:09;78.27;;;72.37;;
14187;SDS011;7175;51.978;5.330;2022-11-15T06:13:37;80.47;;;74.37;;
14187;SDS011;7175;51.978;5.330;2022-11-15T06:16:07;71.20;;;65.50;;
14187;SDS011;7175;51.978;5.330;2022-11-15T06:18:35;73.77;;;68.00;;
14187;SDS011;7175;51.978;5.330;2022-11-15T06:21:04;73.00;;;67.30;;
14187;SDS011;7175;51.978;5.330;2022-11-15T06:23:33;71.63;;;65.93;;
14187;SDS011;7175;51.978;5.330;2022-11-15T06:26:02;70.67;;;65.07;;
14187;SDS011;7175;51.978;5.330;2022-11-15T06:28:31;75.37;;;69.57;;
14187;SDS011;7175;51.978;5.330;2022-11-15T06:31:02;71.50;;;65.70;;
14187;SDS011;7175;51.978;5.330;2022-11-15T06:33:32;74.37;;;68.50;;
14187;SDS011;7175;51.978;5.330;2022-11-15T06:36:01;73.63;;;67.83;;
14187;SDS011;7175;51.978;5.330;2022-11-15T06:38:29;72.77;;;66.97;;
14187;SDS011;7175;51.978;5.330;2022-11-15T06:41:00;77.57;;;71.37;;
14187;SDS011;7175;51.978;5.330;2022-11-15T06:43:29;71.60;;;65.90;;
14187;SDS011;7175;51.978;5.330;2022-11-15T06:45:58;82.20;;;75.90;;
14187;SDS011;7175;51.978;5.330;2022-11-15T06:48:27;90.30;;;83.63;;
14187;SDS011;7175;51.978;5.330;2022-11-15T06:50:58;85.43;;;79.00;;
14187;SDS011;7175;51.978;5.330;2022-11-15T06:53:29;88.37;;;81.87;;
14187;SDS011;7175;51.978;5.330;2022-11-15T06:55:58;85.70;;;79.30;;
14187;SDS011;7175;51.978;5.330;2022-11-15T06:58:27;85.97;;;79.57;;
14187;SDS011;7175;51.978;5.330;2022-11-15T07:00:58;77.27;;;71.17;;
14187;SDS011;7175;51.978;5.330;2022-11-15T07:03:27;83.90;;;77.50;;
14187;SDS011;7175;51.978;5.330;2022-11-15T07:05:56;82.50;;;76.10;;
14187;SDS011;7175;51.978;5.330;2022-11-15T07:08:32;74.90;;;68.73;;
14187;SDS011;7175;51.978;5.330;2022-11-15T07:11:02;75.67;;;69.37;;
14187;SDS011;7175;51.978;5.330;2022-11-15T07:13:31;79.40;;;73.17;;
14187;SDS011;7175;51.978;5.330;2022-11-15T07:16:01;80.60;;;74.30;;
14187;SDS011;7175;51.978;5.330;2022-11-15T07:18:30;83.73;;;76.93;;
14187;SDS011;7175;51.978;5.330;2022-11-15T07:21:01;85.47;;;78.67;;
14187;SDS011;7175;51.978;5.330;2022-11-15T07:23:30;90.27;;;83.07;;
14187;SDS011;7175;51.978;5.330;2022-11-15T07:25:59;89.97;;;82.97;;
14187;SDS011;7175;51.978;5.330;2022-11-15T07:28:28;87.60;;;80.70;;
14187;SDS011;7175;51.978;5.330;2022-11-15T07:30:56;85.10;;;78.20;;
14187;SDS011;7175;51.978;5.330;2022-11-15T07:33:24;89.23;;;82.23;;
14187;SDS011;7175;51.978;5.330;2022-11-15T07:35:52;92.33;;;85.20;;
14187;SDS011;7175;51.978;5.330;2022-11-15T07:38:22;92.73;;;85.53;;
14187;SDS011;7175;51.978;5.330;2022-11-15T07:40:55;98.37;;;90.77;;
14187;SDS011;7175;51.978;5.330;2022-11-15T07:43:23;91.37;;;84.17;;
14187;SDS011;7175;51.978;5.330;2022-11-15T07:45:54;92.53;;;85.17;;
14187;SDS011;7175;51.978;5.330;2022-11-15T07:48:25;92.17;;;84.90;;
14187;SDS011;7175;51.978;5.330;2022-11-15T07:51:10;89.87;;;82.80;;
14187;SDS011;7175;51.978;5.330;2022-11-15T07:53:41;82.87;;;76.10;;
14187;SDS011;7175;51.978;5.330;2022-11-15T07:56:10;83.30;;;76.60;;
14187;SDS011;7175;51.978;5.330;2022-11-15T07:58:39;89.53;;;82.53;;
14187;SDS011;7175;51.978;5.330;2022-11-15T08:01:07;88.13;;;81.33;;
14187;SDS011;7175;51.978;5.330;2022-11-15T08:03:37;92.60;;;85.60;;
14187;SDS011;7175;51.978;5.330;2022-11-15T08:06:05;92.50;;;85.40;;
14187;SDS011;7175;51.978;5.330;2022-11-15T08:08:34;93.03;;;85.93;;
14187;SDS011;7175;51.978;5.330;2022-11-15T08:11:03;91.37;;;84.57;;
14187;SDS011;7175;51.978;5.330;2022-11-15T08:13:31;88.20;;;81.50;;
14187;SDS011;7175;51.978;5.330;2022-11-15T08:16:00;85.33;;;78.83;;
14187;SDS011;7175;51.978;5.330;2022-11-15T08:18:31;83.57;;;77.17;;
14187;SDS011;7175;51.978;5.330;2022-11-15T08:21:00;84.60;;;78.20;;
14187;SDS011;7175;51.978;5.330;2022-11-15T08:23:28;85.30;;;78.90;;
14187;SDS011;7175;51.978;5.330;2022-11-15T08:25:59;83.07;;;76.77;;
14187;SDS011;7175;51.978;5.330;2022-11-15T08:28:30;85.87;;;79.47;;
14187;SDS011;7175;51.978;5.330;2022-11-15T08:30:58;86.43;;;79.97;;
14187;SDS011;7175;51.978;5.330;2022-11-15T08:33:26;83.40;;;76.90;;
14187;SDS011;7175;51.978;5.330;2022-11-15T08:35:56;81.30;;;75.10;;
14187;SDS011;7175;51.978;5.330;2022-11-15T08:38:24;81.63;;;75.47;;
14187;SDS011;7175;51.978;5.330;2022-11-15T08:40:59;83.97;;;77.60;;
14187;SDS011;7175;51.978;5.330;2022-11-15T08:43:30;82.43;;;76.33;;
14187;SDS011;7175;51.978;5.330;2022-11-15T08:45:58;81.20;;;75.23;;
14187;SDS011;7175;51.978;5.330;2022-11-15T08:48:26;78.13;;;72.37;;
14187;SDS011;7175;51.978;5.330;2022-11-15T08:50:55;72.70;;;67.20;;
14187;SDS011;7175;51.978;5.330;2022-11-15T08:53:23;73.10;;;67.60;;
14187;SDS011;7175;51.978;5.330;2022-11-15T08:55:52;73.47;;;67.97;;
14187;SDS011;7175;51.978;5.330;2022-11-15T08:58:20;71.83;;;66.43;;
14187;SDS011;7175;51.978;5.330;2022-11-15T09:00:49;68.50;;;63.30;;
14187;SDS011;7175;51.978;5.330;2022-11-15T09:03:17;67.20;;;62.10;;
14187;SDS011;7175;51.978;5.330;2022-11-15T09:05:45;65.40;;;60.40;;
14187;SDS011;7175;51.978;5.330;2022-11-15T09:08:13;64.93;;;59.93;;
14187;SDS011;7175;51.978;5.330;2022-11-15T09:11:02;60.17;;;55.47;;
14187;SDS011;7175;51.978;5.330;2022-11-15T09:13:31;61.00;;;56.20;;
14187;SDS011;7175;51.978;5.330;2022-11-15T09:16:01;60.33;;;55.63;;
14187;SDS011;7175;51.978;5.330;2022-11-15T09:18:29;57.73;;;53.23;;
14187;SDS011;7175;51.978;5.330;2022-11-15T09:20:59;55.57;;;51.27;;
14187;SDS011;7175;51.978;5.330;2022-11-15T09:23:28;50.77;;;46.77;;
14187;SDS011;7175;51.978;5.330;2022-11-15T09:26:00;51.67;;;47.57;;
14187;SDS011;7175;51.978;5.330;2022-11-15T09:28:29;50.43;;;46.43;;
14187;SDS011;7175;51.978;5.330;2022-11-15T09:31:02;50.07;;;46.17;;
14187;SDS011;7175;51.978;5.330;2022-11-15T09:33:31;46.83;;;43.23;;
14187;SDS011;7175;51.978;5.330;2022-11-15T09:36:00;44.97;;;41.57;;
14187;SDS011;7175;51.978;5.330;2022-11-15T09:38:30;43.80;;;40.37;;
14187;SDS011;7175;51.978;5.330;2022-11-15T09:41:21;44.00;;;40.70;;
14187;SDS011;7175;51.978;5.330;2022-11-15T09:44:08;41.53;;;38.43;;
14187;SDS011;7175;51.978;5.330;2022-11-15T09:46:56;40.83;;;37.83;;
14187;SDS011;7175;51.978;5.330;2022-11-15T09:49:31;39.30;;;36.30;;
14187;SDS011;7175;51.978;5.330;2022-11-15T09:52:00;38.53;;;35.63;;
14187;SDS011;7175;51.978;5.330;2022-11-15T09:54:29;38.17;;;35.17;;
14187;SDS011;7175;51.978;5.330;2022-11-15T09:57:20;37.20;;;34.30;;
14187;SDS011;7175;51.978;5.330;2022-11-15T10:03:11;31.43;;;28.93;;
14187;SDS011;7175;51.978;5.330;2022-11-15T10:05:42;32.17;;;29.67;;
14187;SDS011;7175;51.978;5.330;2022-11-15T10:08:15;31.70;;;29.30;;
14187;SDS011;7175;51.978;5.330;2022-11-15T10:10:59;31.07;;;28.57;;
14187;SDS011;7175;51.978;5.330;2022-11-15T10:13:48;28.57;;;26.33;;
14187;SDS011;7175;51.978;5.330;2022-11-15T10:16:29;28.37;;;26.07;;
14187;SDS011;7175;51.978;5.330;2022-11-15T10:19:14;26.57;;;24.47;;
14187;SDS011;7175;51.978;5.330;2022-11-15T10:21:54;25.60;;;23.60;;
14187;SDS011;7175;51.978;5.330;2022-11-15T10:24:33;24.90;;;22.90;;
14187;SDS011;7175;51.978;5.330;2022-11-15T10:27:07;23.17;;;21.27;;
14187;SDS011;7175;51.978;5.330;2022-11-15T10:29:42;24.13;;;22.13;;
14187;SDS011;7175;51.978;5.330;2022-11-15T10:32:11;23.50;;;21.50;;
14187;SDS011;7175;51.978;5.330;2022-11-15T10:34:41;23.20;;;21.30;;
14187;SDS011;7175;51.978;5.330;2022-11-15T10:37:11;21.93;;;20.13;;
14187;SDS011;7175;51.978;5.330;2022-11-15T10:39:41;21.90;;;20.10;;
14187;SDS011;7175;51.978;5.330;2022-11-15T10:42:17;20.47;;;18.77;;
14187;SDS011;7175;51.978;5.330;2022-11-15T10:44:54;20.40;;;18.70;;
14187;SDS011;7175;51.978;5.330;2022-11-15T10:47:26;21.03;;;19.30;;
14187;SDS011;7175;51.978;5.330;2022-11-15T10:50:06;20.60;;;18.90;;
14187;SDS011;7175;51.978;5.330;2022-11-15T10:52:54;20.80;;;19.10;;
14187;SDS011;7175;51.978;5.330;2022-11-15T10:55:26;21.40;;;19.60;;
14187;SDS011;7175;51.978;5.330;2022-11-15T10:57:56;20.30;;;18.60;;
14187;SDS011;7175;51.978;5.330;2022-11-15T11:00:32;20.67;;;18.97;;
14187;SDS011;7175;51.978;5.330;2022-11-15T11:03:03;21.10;;;19.30;;
14187;SDS011;7175;51.978;5.330;2022-11-15T11:05:35;20.30;;;18.63;;
14187;SDS011;7175;51.978;5.330;2022-11-15T11:08:19;19.80;;;18.20;;
14187;SDS011;7175;51.978;5.330;2022-11-15T11:10:51;19.60;;;18.10;;
14187;SDS011;7175;51.978;5.330;2022-11-15T11:13:29;19.50;;;18.00;;
14187;SDS011;7175;51.978;5.330;2022-11-15T11:15:59;19.10;;;17.60;;
14187;SDS011;7175;51.978;5.330;2022-11-15T11:18:43;18.67;;;17.17;;
14187;SDS011;7175;51.978;5.330;2022-11-15T11:21:18;18.30;;;16.90;;
14187;SDS011;7175;51.978;5.330;2022-11-15T11:24:03;18.23;;;16.73;;
14187;SDS011;7175;51.978;5.330;2022-11-15T11:26:40;18.53;;;17.03;;
14187;SDS011;7175;51.978;5.330;2022-11-15T11:29:16;18.83;;;17.23;;
14187;SDS011;7175;51.978;5.330;2022-11-15T11:31:56;18.70;;;17.20;;
14187;SDS011;7175;51.978;5.330;2022-11-15T11:34:34;18.70;;;17.20;;
14187;SDS011;7175;51.978;5.330;2022-11-15T11:37:14;19.03;;;17.43;;
14187;SDS011;7175;51.978;5.330;2022-11-15T11:39:56;19.40;;;17.90;;
14187;SDS011;7175;51.978;5.330;2022-11-15T11:42:37;18.80;;;17.30;;
14187;SDS011;7175;51.978;5.330;2022-11-15T11:45:15;18.80;;;17.30;;
14187;SDS011;7175;51.978;5.330;2022-11-15T11:47:51;19.17;;;17.67;;
14187;SDS011;7175;51.978;5.330;2022-11-15T11:50:25;18.10;;;16.70;;
14187;SDS011;7175;51.978;5.330;2022-11-15T11:52:57;18.93;;;17.43;;
14187;SDS011;7175;51.978;5.330;2022-11-15T11:55:31;18.70;;;17.30;;
14187;SDS011;7175;51.978;5.330;2022-11-15T11:58:04;18.00;;;16.60;;
14187;SDS011;7175;51.978;5.330;2022-11-15T12:00:39;18.97;;;17.47;;
14187;SDS011;7175;51.978;5.330;2022-11-15T12:03:11;18.57;;;17.07;;
14187;SDS011;7175;51.978;5.330;2022-11-15T12:05:51;18.00;;;16.60;;
14187;SDS011;7175;51.978;5.330;2022-11-15T12:08:25;18.60;;;17.10;;
14187;SDS011;7175;51.978;5.330;2022-11-15T12:11:03;18.90;;;17.40;;
14187;SDS011;7175;51.978;5.330;2022-11-15T12:13:36;18.23;;;16.73;;
14187;SDS011;7175;51.978;5.330;2022-11-15T12:16:08;18.00;;;16.60;;
14187;SDS011;7175;51.978;5.330;2022-11-15T12:18:44;17.90;;;16.50;;
14187;SDS011;7175;51.978;5.330;2022-11-15T12:21:16;18.30;;;16.87;;
14187;SDS011;7175;51.978;5.330;2022-11-15T12:23:59;18.57;;;17.07;;
14187;SDS011;7175;51.978;5.330;2022-11-15T12:26:33;18.10;;;16.70;;
14187;SDS011;7175;51.978;5.330;2022-11-15T12:29:06;17.87;;;16.47;;
14187;SDS011;7175;51.978;5.330;2022-11-15T12:31:43;18.10;;;16.70;;
14187;SDS011;7175;51.978;5.330;2022-11-15T12:34:29;18.20;;;16.80;;
14187;SDS011;7175;51.978;5.330;2022-11-15T12:40:22;18.10;;;16.70;;
14187;SDS011;7175;51.978;5.330;2022-11-15T12:43:03;19.13;;;17.63;;
14187;SDS011;7175;51.978;5.330;2022-11-15T12:45:46;17.90;;;16.50;;
14187;SDS011;7175;51.978;5.330;2022-11-15T12:54:52;18.20;;;16.80;;
14187;SDS011;7175;51.978;5.330;2022-11-15T12:57:31;18.10;;;16.70;;
14187;SDS011;7175;51.978;5.330;2022-11-15T13:00:05;17.90;;;16.50;;
14187;SDS011;7175;51.978;5.330;2022-11-15T13:05:58;18.63;;;17.23;;
14187;SDS011;7175;51.978;5.330;2022-11-15T13:08:35;18.17;;;16.77;;
14187;SDS011;7175;51.978;5.330;2022-11-15T13:20:17;18.00;;;16.60;;
14187;SDS011;7175;51.978;5.330;2022-11-15T13:22:48;18.10;;;16.70;;
14187;SDS011;7175;51.978;5.330;2022-11-15T13:25:19;18.33;;;16.83;;
14187;SDS011;7175;51.978;5.330;2022-11-15T13:28:18;19.47;;;17.87;;
14187;SDS011;7175;51.978;5.330;2022-11-15T13:30:51;18.60;;;17.10;;
14187;SDS011;7175;51.978;5.330;2022-11-15T13:33:22;18.53;;;17.03;;
14187;SDS011;7175;51.978;5.330;2022-11-15T13:36:01;19.20;;;17.70;;
14187;SDS011;7175;51.978;5.330;2022-11-15T13:38:32;18.90;;;17.40;;
14187;SDS011;7175;51.978;5.330;2022-11-15T13:41:10;19.00;;;17.53;;
14187;SDS011;7175;51.978;5.330;2022-11-15T13:43:44;18.50;;;17.10;;
14187;SDS011;7175;51.978;5.330;2022-11-15T13:46:15;20.07;;;18.47;;
14187;SDS011;7175;51.978;5.330;2022-11-15T13:48:45;18.77;;;17.37;;
14187;SDS011;7175;51.978;5.330;2022-11-15T13:51:23;19.13;;;17.73;;
14187;SDS011;7175;51.978;5.330;2022-11-15T13:53:55;19.20;;;17.70;;
14187;SDS011;7175;51.978;5.330;2022-11-15T13:56:26;18.60;;;17.20;;
14187;SDS011;7175;51.978;5.330;2022-11-15T13:58:56;18.93;;;17.53;;
14187;SDS011;7175;51.978;5.330;2022-11-15T14:01:26;19.67;;;18.10;;
14187;SDS011;7175;51.978;5.330;2022-11-15T14:03:59;18.90;;;17.50;;
14187;SDS011;7175;51.978;5.330;2022-11-15T14:06:29;19.20;;;17.80;;
14187;SDS011;7175;51.978;5.330;2022-11-15T14:08:59;18.90;;;17.50;;
14187;SDS011;7175;51.978;5.330;2022-11-15T14:11:50;18.90;;;17.40;;
14187;SDS011;7175;51.978;5.330;2022-11-15T14:14:19;18.87;;;17.37;;
14187;SDS011;7175;51.978;5.330;2022-11-15T14:16:50;18.77;;;17.30;;
14187;SDS011;7175;51.978;5.330;2022-11-15T14:19:38;18.63;;;17.23;;
14187;SDS011;7175;51.978;5.330;2022-11-15T14:22:08;18.57;;;17.17;;
14187;SDS011;7175;51.978;5.330;2022-11-15T14:27:34;18.43;;;17.03;;
14187;SDS011;7175;51.978;5.330;2022-11-15T14:30:02;18.03;;;16.63;;
14187;SDS011;7175;51.978;5.330;2022-11-15T14:32:39;18.17;;;16.77;;
14187;SDS011;7175;51.978;5.330;2022-11-15T14:35:12;20.50;;;18.80;;
14187;SDS011;7175;51.978;5.330;2022-11-15T14:37:43;18.00;;;16.60;;
14187;SDS011;7175;51.978;5.330;2022-11-15T14:40:13;19.07;;;17.57;;
14187;SDS011;7175;51.978;5.330;2022-11-15T14:42:44;19.17;;;17.67;;
14187;SDS011;7175;51.978;5.330;2022-11-15T14:45:13;19.27;;;17.40;;
14187;SDS011;7175;51.978;5.330;2022-11-15T14:47:44;18.63;;;17.23;;
14187;SDS011;7175;51.978;5.330;2022-11-15T14:50:13;18.20;;;16.80;;
14187;SDS011;7175;51.978;5.330;2022-11-15T14:52:44;18.57;;;17.17;;
14187;SDS011;7175;51.978;5.330;2022-11-15T14:55:14;18.73;;;17.33;;
14187;SDS011;7175;51.978;5.330;2022-11-15T14:57:46;18.33;;;16.93;;
14187;SDS011;7175;51.978;5.330;2022-11-15T15:00:15;18.60;;;17.20;;
14187;SDS011;7175;51.978;5.330;2022-11-15T15:02:45;18.20;;;16.80;;
14187;SDS011;7175;51.978;5.330;2022-11-15T15:05:15;19.17;;;17.77;;
14187;SDS011;7175;51.978;5.330;2022-11-15T15:07:46;20.70;;;19.20;;
14187;SDS011;7175;51.978;5.330;2022-11-15T15:10:16;18.50;;;17.10;;
14187;SDS011;7175;51.978;5.330;2022-11-15T15:13:05;17.37;;;16.07;;
14187;SDS011;7175;51.978;5.330;2022-11-15T15:15:36;18.60;;;17.20;;
14187;SDS011;7175;51.978;5.330;2022-11-15T15:18:06;18.60;;;17.20;;
14187;SDS011;7175;51.978;5.330;2022-11-15T15:20:35;17.97;;;16.63;;
14187;SDS011;7175;51.978;5.330;2022-11-15T15:23:05;18.10;;;16.80;;
14187;SDS011;7175;51.978;5.330;2022-11-15T15:25:36;19.03;;;17.73;;
14187;SDS011;7175;51.978;5.330;2022-11-15T15:28:04;18.50;;;17.20;;
14187;SDS011;7175;51.978;5.330;2022-11-15T15:30:32;18.70;;;17.40;;
14187;SDS011;7175;51.978;5.330;2022-11-15T15:33:00;19.73;;;18.23;;
14187;SDS011;7175;51.978;5.330;2022-11-15T15:35:31;18.60;;;17.30;;